Monday, February 19, 2018, 10:04 AM GMT
Back to Local

CYHU, Saint Hubert Airport

Location: , , Canada Lat: 45.517
Local Time: 10:04 AM GMT (10:04 GMT) Lon: -73.417
Time Zone: GMT Elev: 88 ft

Show me the last for .
Show Decoded

2018-02-19 09:00 METAR CYHU 190900Z AUTO 18010G15KT 9SM OVC160 M02/M07 A3035 RMK SLP280 =
2018-02-19 08:00 METAR CYHU 190800Z AUTO 18009KT 9SM FEW140 BKN180 M02/M07 A3035 RMK SLP280 =
2018-02-19 07:00 METAR CYHU 190700Z AUTO 17009KT 9SM BKN120 BKN140 M02/M07 A3035 RMK SLP280 =
2018-02-19 06:00 METAR CYHU 190600Z AUTO 17009KT 9SM SCT140 SCT160 SCT180 M04/M08 A3037 RMK
                 SLP287 =
2018-02-19 05:00 METAR CYHU 190500Z AUTO 18005KT 9SM CLR M05/M09 A3039 RMK SLP293 =
2018-02-19 04:00 METAR CYHU 190400Z AUTO 20003KT 9SM CLR M05/M09 A3039 RMK SLP295 =
2018-02-19 03:00 METAR CYHU 190300Z AUTO 18004KT 9SM CLR M04/M08 A3039 RMK SLP295 =
2018-02-19 02:00 METAR CYHU 190200Z AUTO 19007KT 9SM CLR M03/M08 A3040 RMK SLP298 =
2018-02-19 01:00 METAR CYHU 190100Z AUTO 19007KT 9SM CLR M03/M07 A3038 RMK SLP292 =
2018-02-19 00:00 METAR CYHU 190000Z AUTO 19007KT 9SM CLR M02/M06 A3037 RMK SLP288 =
2018-02-18 23:00 METAR CYHU 182300Z AUTO 21005KT 9SM CLR M00/M06 A3035 RMK SLP280 =
2018-02-18 22:00 METAR CYHU 182200Z AUTO 25009KT 9SM FEW065 00/M06 A3032 RMK SLP270 =
2018-02-18 21:00 METAR CYHU 182100Z AUTO 26012G21KT 9SM FEW041 BKN065 02/M06 A3029 RMK SLP259 =
2018-02-18 20:00 METAR CYHU 182000Z AUTO 24010G15KT 9SM BKN060 01/M05 A3026 RMK SLP248 =
2018-02-18 19:00 METAR CYHU 181900Z AUTO 25013KT 9SM CLR 01/M06 A3023 RMK SLP240 =
2018-02-18 18:00 METAR CYHU 181800Z AUTO 27010G16KT 9SM CLR 01/M06 A3023 RMK SLP239 =
2018-02-18 17:00 METAR CYHU 181700Z AUTO 25012KT 9SM FEW080 M00/M05 A3022 RMK SLP235 =
2018-02-18 16:51 METAR CYHU 181651Z AUTO 25011KT 9SM SCT080 M00/M05 A3022 RMK SLP236 =
2018-02-18 16:38 METAR CYHU 181638Z AUTO 25013KT 9SM -SN BKN080 M00/M05 A3023 RMK SLP238 =
2018-02-18 16:01 METAR CYHU 181601Z AUTO 26015KT 9SM SCT075 M01/M06 A3023 RMK PRESRR SLP238 =
2018-02-18 16:00 METAR CYHU 181600Z AUTO 26014KT 9SM -SN SCT075 M01/M06 A3023 RMK SLP238 =
2018-02-18 15:46 METAR CYHU 181546Z AUTO 28013G19KT 6SM -SN CLR M01/M06 A3021 RMK SLP233 =
2018-02-18 15:36 METAR CYHU 181536Z AUTO 26015KT 4SM -SN CLR M01/M06 A3021 RMK PRESRR SLP234 =
2018-02-18 15:21 METAR CYHU 181521Z AUTO 25013KT 8SM -SN CLR M02/M06 A3020 RMK SLP229 =
2018-02-18 15:00 METAR CYHU 181500Z AUTO 26008G15KT 230V300 9SM CLR M02/M06 A3019 RMK PRESRR
                 SLP225 =
2018-02-18 14:00 METAR CYHU 181400Z AUTO 24012KT 9SM CLR M04/M08 A3017 RMK SLP218 =
2018-02-18 13:00 METAR CYHU 181300Z AUTO 24009KT 9SM BKN043 M05/M08 A3012 RMK PRESRR SLP201 =
2018-02-18 12:00 METAR CYHU 181200Z AUTO 22006KT 9SM FEW120 M05/M08 A3006 RMK SLP181 =
2018-02-18 11:00 METAR CYHU 181100Z AUTO 23006KT 9SM OVC100 M05/M07 A3003 RMK SLP173 =

Support USWX by starting your Amazon purchase here.